Andover, Ohio
Current Conditions -  °F | °C
As of 4:53 AM on Thursday 18 Dec 2014 (Local Time) from KHZY Reporting Station
Overcast Overcast  
Wind Chill: 23°   Ceiling: 2000
Heat Index: 30°   Visibility: 10mi
Dew Point: 23°   Wind: 7mph
Humidity: 75%   Direction: 300°WNW
Pressure: 30.14"   Gusts: NA
Location:  41.61°N, 80.57°W
Report Text: KHZY 180953Z AUTO 30006KT 10SM OVC020 M01/M05 A3014 RMK AO2 SLP217 T10111050
Loading
Personal Weather Stations






























Interactive Weather Map New forecast layout! Learn more

10-Day Weather Forecast

Advertisements
Track Severe Weather on mobile